createdAt,value
2022-09-11T00:01:16.709Z,100.00
2022-09-11T00:03:44.995Z,100.00
2022-09-11T00:06:14.410Z,100.00
2022-09-11T00:08:42.396Z,100.00
2022-09-11T00:11:17.470Z,100.00
2022-09-11T00:13:50.477Z,100.00
2022-09-11T00:16:26.945Z,100.00
2022-09-11T00:18:55.492Z,100.00
2022-09-11T00:21:22.074Z,100.00
2022-09-11T00:23:51.817Z,100.00
2022-09-11T00:26:19.635Z,100.00
2022-09-11T00:28:46.658Z,100.00
2022-09-11T00:31:16.492Z,100.00
2022-09-11T00:33:43.888Z,100.00
2022-09-11T00:36:16.974Z,100.00
2022-09-11T00:38:43.870Z,100.00
2022-09-11T00:41:14.897Z,100.00
2022-09-11T00:44:13.285Z,100.00
2022-09-11T00:46:47.405Z,100.00
2022-09-11T00:49:58.694Z,100.00
2022-09-11T00:52:34.239Z,100.00
2022-09-11T00:55:14.487Z,100.00
2022-09-11T00:57:58.996Z,100.00
2022-09-11T01:00:25.653Z,100.00
2022-09-11T01:02:54.526Z,100.00
2022-09-11T01:05:25.213Z,100.00
2022-09-11T01:07:54.547Z,100.00
2022-09-11T01:10:36.519Z,100.00
2022-09-11T01:13:17.394Z,100.00
2022-09-11T01:15:58.963Z,100.00
2022-09-11T01:19:00.969Z,100.00
2022-09-11T01:21:54.449Z,100.00
2022-09-11T01:24:39.758Z,100.00
2022-09-11T01:27:25.525Z,100.00
2022-09-11T01:30:01.800Z,100.00
2022-09-11T01:32:37.020Z,100.00
2022-09-11T01:35:12.665Z,100.00
2022-09-11T01:37:53.767Z,100.00
2022-09-11T01:40:28.240Z,100.00
2022-09-11T01:43:03.423Z,100.00
2022-09-11T01:45:37.378Z,100.00
2022-09-11T01:48:07.961Z,100.00
2022-09-11T01:50:39.030Z,100.00
2022-09-11T01:53:15.107Z,100.00
2022-09-11T01:55:55.479Z,100.00
2022-09-11T01:58:30.942Z,100.00
2022-09-11T02:01:09.625Z,100.00
2022-09-11T02:03:48.460Z,100.00
2022-09-11T02:06:31.152Z,100.00
2022-09-11T02:09:03.093Z,100.00
2022-09-11T02:11:34.162Z,100.00
2022-09-11T02:14:38.332Z,100.00
2022-09-11T02:17:25.819Z,100.00
2022-09-11T02:19:54.531Z,100.00
2022-09-11T02:22:21.015Z,100.00
2022-09-11T02:24:47.475Z,100.00
2022-09-11T02:27:19.487Z,100.00
2022-09-11T02:29:46.091Z,100.00
2022-09-11T02:32:12.800Z,100.00
2022-09-11T02:34:42.657Z,100.00
2022-09-11T02:37:40.195Z,100.00
2022-09-11T02:40:31.954Z,100.00
2022-09-11T02:43:23.233Z,100.00
2022-09-11T02:46:07.950Z,100.00
2022-09-11T02:48:35.742Z,100.00
2022-09-11T02:51:34.803Z,100.00
2022-09-11T02:54:32.989Z,100.00
2022-09-11T02:57:13.947Z,100.00
2022-09-11T02:59:51.952Z,100.00
2022-09-11T03:02:18.554Z,100.00
2022-09-11T03:04:45.539Z,100.00
2022-09-11T03:07:12.684Z,100.00
2022-09-11T03:09:39.185Z,100.00
2022-09-11T03:12:06.178Z,100.00
2022-09-11T03:14:32.523Z,100.00
2022-09-11T03:16:59.198Z,100.00
2022-09-11T03:19:25.559Z,100.00
2022-09-11T03:21:52.282Z,100.00
2022-09-11T03:24:18.634Z,100.00
2022-09-11T03:26:45.217Z,100.00
2022-09-11T03:29:12.367Z,100.00
2022-09-11T03:31:39.531Z,100.00
2022-09-11T03:34:06.429Z,100.00
2022-09-11T03:36:34.562Z,100.00
2022-09-11T03:39:01.982Z,100.00
2022-09-11T03:41:28.701Z,100.00
2022-09-11T03:43:55.210Z,100.00
2022-09-11T03:46:21.894Z,100.00
2022-09-11T03:48:48.253Z,100.00
2022-09-11T03:51:15.220Z,100.00
2022-09-11T03:53:42.939Z,100.00
2022-09-11T03:56:10.142Z,100.00
2022-09-11T03:58:37.087Z,100.00
2022-09-11T04:01:12.150Z,100.00
2022-09-11T04:03:39.969Z,100.00
2022-09-11T04:06:07.485Z,100.00
2022-09-11T04:08:36.970Z,100.00
2022-09-11T04:11:06.042Z,100.00
2022-09-11T04:13:37.681Z,100.00
2022-09-11T04:16:11.222Z,100.00
2022-09-11T04:18:39.806Z,100.00
2022-09-11T04:21:12.515Z,100.00
2022-09-11T04:23:39.235Z,100.00
2022-09-11T04:26:16.819Z,100.00
2022-09-11T04:28:43.713Z,100.00
2022-09-11T04:31:10.427Z,100.00
2022-09-11T04:33:37.378Z,100.00
2022-09-11T04:36:08.369Z,100.00
2022-09-11T04:38:34.883Z,100.00
2022-09-11T04:41:03.132Z,100.00
2022-09-11T04:43:38.129Z,100.00
2022-09-11T04:46:07.032Z,100.00
2022-09-11T04:48:33.648Z,100.00
2022-09-11T04:51:06.037Z,100.00
2022-09-11T04:53:33.852Z,100.00
2022-09-11T04:56:06.364Z,100.00
2022-09-11T04:58:33.822Z,100.00
2022-09-11T05:01:00.343Z,100.00
2022-09-11T05:03:29.961Z,100.00
2022-09-11T05:05:56.455Z,100.00
2022-09-11T05:08:26.826Z,100.00
2022-09-11T05:10:53.240Z,100.00
2022-09-11T05:13:19.893Z,100.00
2022-09-11T05:15:47.006Z,100.00
2022-09-11T05:18:13.384Z,100.00
2022-09-11T05:20:40.601Z,100.00
2022-09-11T05:23:07.512Z,100.00
2022-09-11T05:25:33.986Z,100.00
2022-09-11T05:28:00.457Z,100.00
2022-09-11T05:30:28.816Z,100.00
2022-09-11T05:32:55.311Z,100.00
2022-09-11T05:35:27.231Z,100.00
2022-09-11T05:37:55.574Z,100.00
2022-09-11T05:40:21.911Z,100.00
2022-09-11T05:42:50.653Z,100.00
2022-09-11T05:45:16.999Z,100.00
2022-09-11T05:47:43.466Z,100.00
2022-09-11T05:50:10.081Z,100.00
2022-09-11T05:52:36.521Z,100.00
2022-09-11T05:55:02.963Z,100.00
2022-09-11T05:57:29.473Z,100.00
2022-09-11T05:59:55.856Z,100.00
2022-09-11T06:02:22.337Z,100.00
2022-09-11T06:04:48.814Z,100.00
2022-09-11T06:07:15.277Z,100.00
2022-09-11T06:09:41.777Z,100.00
2022-09-11T06:12:11.777Z,100.00
2022-09-11T06:14:38.558Z,100.00
2022-09-11T06:17:06.392Z,100.00
2022-09-11T06:19:32.885Z,100.00
2022-09-11T06:21:59.273Z,100.00
2022-09-11T06:24:25.839Z,100.00
2022-09-11T06:26:52.232Z,100.00
2022-09-11T06:29:19.445Z,100.00
2022-09-11T06:31:47.619Z,100.00
2022-09-11T06:34:14.052Z,100.00
2022-09-11T06:36:40.438Z,100.00
2022-09-11T06:39:06.852Z,100.00
2022-09-11T06:41:33.281Z,100.00
2022-09-11T06:43:59.842Z,100.00
2022-09-11T06:46:26.893Z,100.00
2022-09-11T06:48:53.772Z,100.00
2022-09-11T06:51:21.485Z,100.00
2022-09-11T06:53:48.581Z,100.00
2022-09-11T06:56:17.885Z,100.00
2022-09-11T06:58:45.909Z,100.00
2022-09-11T07:01:12.250Z,100.00
2022-09-11T07:03:44.942Z,100.00
2022-09-11T07:06:12.705Z,100.00
2022-09-11T07:08:39.458Z,100.00
2022-09-11T07:11:08.072Z,100.00
2022-09-11T07:13:37.493Z,100.00
2022-09-11T07:16:07.736Z,100.00
2022-09-11T07:18:42.485Z,100.00
2022-09-11T07:21:16.810Z,100.00
2022-09-11T07:23:48.098Z,100.00
2022-09-11T07:26:17.555Z,100.00
2022-09-11T07:28:44.260Z,100.00
2022-09-11T07:31:18.597Z,100.00
2022-09-11T07:33:48.754Z,100.00
2022-09-11T07:36:17.601Z,100.00
2022-09-11T07:38:46.060Z,100.00
2022-09-11T07:41:14.378Z,100.00
2022-09-11T07:43:50.695Z,100.00
2022-09-11T07:46:17.594Z,100.00
2022-09-11T07:48:44.778Z,100.00
2022-09-11T07:51:13.714Z,100.00
2022-09-11T07:53:45.368Z,100.00
2022-09-11T07:56:18.413Z,100.00
2022-09-11T07:58:45.398Z,100.00
2022-09-11T08:01:17.201Z,100.00
2022-09-11T08:03:44.708Z,100.00
2022-09-11T08:06:18.919Z,100.00
2022-09-11T08:08:52.477Z,100.00
2022-09-11T08:11:19.046Z,100.00
2022-09-11T08:13:53.547Z,100.00
2022-09-11T08:16:22.200Z,100.00
2022-09-11T08:18:49.044Z,100.00
2022-09-11T08:21:16.274Z,100.00
2022-09-11T08:23:44.264Z,100.00
2022-09-11T08:26:11.997Z,100.00
2022-09-11T08:28:39.990Z,100.00
2022-09-11T08:31:07.016Z,100.00
2022-09-11T08:33:33.765Z,100.00
2022-09-11T08:36:02.434Z,100.00
2022-09-11T08:38:29.620Z,100.00
2022-09-11T08:41:09.282Z,100.00
2022-09-11T08:43:38.972Z,100.00
2022-09-11T08:46:09.440Z,100.00
2022-09-11T08:48:49.718Z,100.00
2022-09-11T08:51:18.242Z,100.00
2022-09-11T08:53:45.598Z,100.00
2022-09-11T08:56:18.281Z,100.00
2022-09-11T08:58:47.665Z,100.00
2022-09-11T09:01:57.856Z,100.00
2022-09-11T09:04:46.382Z,100.00
2022-09-11T09:07:21.342Z,100.00
2022-09-11T09:09:53.655Z,100.00
2022-09-11T09:12:32.459Z,100.00
2022-09-11T09:15:20.041Z,100.00
2022-09-11T09:18:03.611Z,100.00
2022-09-11T09:20:34.212Z,100.00
2022-09-11T09:23:06.703Z,100.00
2022-09-11T09:25:39.918Z,100.00
2022-09-11T09:28:39.301Z,100.00
2022-09-11T09:31:10.321Z,100.00
2022-09-11T09:33:58.431Z,100.00
2022-09-11T09:36:33.043Z,100.00
2022-09-11T09:38:59.876Z,100.00
2022-09-11T09:41:52.538Z,100.00
2022-09-11T09:44:43.848Z,100.00
2022-09-11T09:47:14.265Z,100.00
2022-09-11T09:49:41.702Z,100.00
2022-09-11T09:52:26.490Z,100.00
2022-09-11T09:55:13.274Z,100.00
2022-09-11T09:57:40.067Z,100.00
2022-09-11T10:00:15.846Z,100.00
2022-09-11T10:02:56.424Z,100.00
2022-09-11T10:05:41.406Z,100.00
2022-09-11T10:08:31.599Z,100.00
2022-09-11T10:11:01.328Z,100.00
2022-09-11T10:13:33.394Z,100.00
2022-09-11T10:16:03.726Z,100.00
2022-09-11T10:18:30.469Z,100.00
2022-09-11T10:21:12.076Z,100.00
2022-09-11T10:23:46.572Z,100.00
2022-09-11T10:26:24.710Z,100.00
2022-09-11T10:28:56.378Z,100.00
2022-09-11T10:31:22.970Z,100.00
2022-09-11T10:33:57.703Z,100.00
2022-09-11T10:36:27.191Z,100.00
2022-09-11T10:38:55.837Z,100.00
2022-09-11T10:41:25.042Z,100.00
2022-09-11T10:44:03.142Z,100.00
2022-09-11T10:46:40.448Z,100.00
2022-09-11T10:49:21.023Z,100.00
2022-09-11T10:52:08.856Z,100.00
2022-09-11T10:54:53.201Z,100.00
2022-09-11T10:57:31.467Z,100.00
2022-09-11T11:00:09.223Z,100.00
2022-09-11T11:02:43.086Z,100.00
2022-09-11T11:05:27.075Z,100.00
2022-09-11T11:07:56.382Z,100.00
2022-09-11T11:10:37.830Z,100.00
2022-09-11T11:13:39.414Z,100.00
2022-09-11T11:16:27.553Z,100.00
2022-09-11T11:19:14.952Z,100.00
2022-09-11T11:22:12.274Z,100.00
2022-09-11T11:24:53.631Z,100.00
2022-09-11T11:27:49.358Z,100.00
2022-09-11T11:30:19.506Z,100.00
2022-09-11T11:33:03.858Z,100.00
2022-09-11T11:35:44.757Z,100.00
2022-09-11T11:38:24.323Z,100.00
2022-09-11T11:41:07.755Z,100.00
2022-09-11T11:43:39.869Z,100.00
2022-09-11T11:46:17.845Z,99.74
2022-09-11T11:49:01.766Z,98.57
2022-09-11T11:51:33.982Z,94.81
2022-09-11T11:54:10.509Z,93.45
2022-09-11T11:56:50.084Z,92.46
2022-09-11T11:59:47.207Z,92.77
2022-09-11T12:02:30.614Z,93.29
2022-09-11T12:05:05.887Z,93.64
2022-09-11T12:07:34.698Z,93.42
2022-09-11T12:10:03.232Z,95.88
2022-09-11T12:12:35.728Z,95.36
2022-09-11T12:15:08.736Z,93.62
2022-09-11T12:17:40.160Z,91.16
2022-09-11T12:20:09.302Z,91.46
2022-09-11T12:22:39.001Z,88.22
2022-09-11T12:25:26.060Z,85.72
2022-09-11T12:28:14.306Z,87.58
2022-09-11T12:31:13.898Z,90.16
2022-09-11T12:33:47.178Z,90.09
2022-09-11T12:36:38.522Z,89.09
2022-09-11T12:39:17.853Z,84.15
2022-09-11T12:41:45.788Z,87.42
2022-09-11T12:44:29.889Z,84.90
2022-09-11T12:46:59.030Z,85.95
2022-09-11T12:49:27.198Z,86.89
2022-09-11T12:51:56.281Z,83.40
2022-09-11T12:54:28.828Z,81.72
2022-09-11T12:57:09.172Z,83.67
2022-09-11T12:59:39.093Z,81.07
2022-09-11T13:02:28.319Z,84.78
2022-09-11T13:04:55.569Z,84.37
2022-09-11T13:07:41.602Z,79.46
2022-09-11T13:10:24.970Z,81.36
2022-09-11T13:12:54.160Z,79.05
2022-09-11T13:15:37.178Z,75.78
2022-09-11T13:18:35.752Z,75.01
2022-09-11T13:21:04.854Z,72.07
2022-09-11T13:23:31.497Z,71.76
2022-09-11T13:25:58.448Z,75.23
2022-09-11T13:28:27.535Z,71.86
2022-09-11T13:31:01.921Z,69.53
2022-09-11T13:33:31.003Z,67.53
2022-09-11T13:36:02.895Z,71.08
2022-09-11T13:38:37.201Z,73.29
2022-09-11T13:41:13.421Z,78.34
2022-09-11T13:43:47.638Z,75.51
2022-09-11T13:46:16.977Z,77.41
2022-09-11T13:48:44.797Z,79.77
2022-09-11T13:51:20.765Z,79.34
2022-09-11T13:54:10.129Z,78.04
2022-09-11T13:56:38.433Z,77.77
2022-09-11T13:59:42.929Z,78.14
2022-09-11T14:02:34.569Z,76.47
2022-09-11T14:05:05.442Z,78.60
2022-09-11T14:07:35.004Z,78.34
2022-09-11T14:10:07.534Z,77.21
2022-09-11T14:12:35.190Z,74.36
2022-09-11T14:15:16.361Z,73.37
2022-09-11T14:17:42.849Z,70.96
2022-09-11T14:20:17.230Z,71.18
2022-09-11T14:22:44.177Z,69.08
2022-09-11T14:25:21.654Z,68.10
2022-09-11T14:27:48.439Z,69.24
2022-09-11T14:30:36.868Z,71.75
2022-09-11T14:33:15.306Z,75.75
2022-09-11T14:38:11.506Z,76.06
2022-09-11T14:40:42.019Z,76.30
2022-09-11T14:43:09.964Z,77.17
2022-09-11T14:45:36.389Z,76.96
2022-09-11T14:48:03.329Z,77.89
2022-09-11T14:50:30.861Z,76.32
2022-09-11T14:52:57.292Z,74.81
2022-09-11T14:55:23.934Z,75.50
2022-09-11T14:57:50.297Z,75.21
2022-09-11T15:00:18.593Z,76.21
2022-09-11T15:02:45.086Z,74.55
2022-09-11T15:05:17.362Z,76.12
2022-09-11T15:07:46.432Z,75.59
2022-09-11T15:10:14.037Z,73.64
2022-09-11T15:12:40.501Z,73.09
2022-09-11T15:15:07.567Z,73.61
2022-09-11T15:17:36.235Z,74.31
2022-09-11T15:20:09.133Z,72.00
2022-09-11T15:22:36.405Z,72.00
2022-09-11T15:25:03.563Z,72.53
2022-09-11T15:27:29.988Z,73.72
2022-09-11T15:29:56.349Z,73.69
2022-09-11T15:32:23.044Z,73.39
2022-09-11T15:34:49.502Z,72.09
2022-09-11T15:37:18.529Z,73.24
2022-09-11T15:39:44.915Z,73.98
2022-09-11T15:42:12.526Z,73.01
2022-09-11T15:44:41.662Z,75.39
2022-09-11T15:47:08.825Z,73.43
2022-09-11T15:49:40.512Z,74.17
2022-09-11T15:52:07.433Z,74.36
2022-09-11T15:54:33.852Z,75.20
2022-09-11T15:57:00.534Z,73.01
2022-09-11T15:59:26.927Z,73.44
2022-09-11T16:01:53.410Z,73.03
2022-09-11T16:04:21.910Z,73.72
2022-09-11T16:06:50.381Z,74.62
2022-09-11T16:09:22.884Z,74.63
2022-09-11T16:11:50.297Z,74.71
2022-09-11T16:14:18.997Z,74.42
2022-09-11T16:16:48.295Z,74.70
2022-09-11T16:19:15.728Z,76.29
2022-09-11T16:21:42.101Z,76.11
2022-09-11T16:24:09.897Z,76.35
2022-09-11T16:26:38.232Z,76.27
2022-09-11T16:29:09.589Z,76.65
2022-09-11T16:31:36.071Z,77.52
2022-09-11T16:34:04.084Z,79.87
2022-09-11T16:36:33.590Z,77.94
2022-09-11T16:39:01.130Z,76.90
2022-09-11T16:41:27.453Z,77.73
2022-09-11T16:43:54.140Z,78.35
2022-09-11T16:46:23.205Z,78.14
2022-09-11T16:48:54.395Z,78.50
2022-09-11T16:51:23.400Z,79.90
2022-09-11T16:53:50.298Z,78.43
2022-09-11T16:56:19.983Z,78.05
2022-09-11T16:58:47.035Z,77.95
2022-09-11T17:01:20.027Z,78.05
2022-09-11T17:03:48.437Z,78.25
2022-09-11T17:06:16.726Z,79.81
2022-09-11T17:08:44.573Z,81.40
2022-09-11T17:11:14.369Z,83.33
2022-09-11T17:13:42.582Z,85.50
2022-09-11T17:16:16.527Z,85.75
2022-09-11T17:18:51.267Z,86.57
2022-09-11T17:21:17.755Z,87.99
2022-09-11T17:23:44.923Z,89.56
2022-09-11T17:26:14.029Z,90.13
2022-09-11T17:28:41.958Z,91.16
2022-09-11T17:31:10.651Z,92.77
2022-09-11T17:33:40.083Z,93.76
2022-09-11T17:36:08.553Z,94.80
2022-09-11T17:38:35.126Z,96.72
2022-09-11T17:41:04.812Z,97.37
2022-09-11T17:43:33.131Z,98.10
2022-09-11T17:46:04.877Z,98.92
2022-09-11T17:48:31.815Z,99.54
2022-09-11T17:51:09.130Z,100.00
2022-09-11T17:53:38.625Z,100.00
2022-09-11T17:56:09.698Z,100.00
2022-09-11T17:58:37.273Z,100.00
2022-09-11T18:01:05.233Z,100.00
2022-09-11T18:03:33.416Z,100.00
2022-09-11T18:06:01.495Z,100.00
2022-09-11T18:08:29.068Z,100.00
2022-09-11T18:10:59.903Z,100.00
2022-09-11T18:13:28.282Z,100.00
2022-09-11T18:15:56.164Z,100.00
2022-09-11T18:18:23.773Z,100.00
2022-09-11T18:20:53.831Z,100.00
2022-09-11T18:23:24.170Z,100.00
2022-09-11T18:25:51.474Z,100.00
2022-09-11T18:28:19.984Z,100.00
2022-09-11T18:30:47.433Z,100.00
2022-09-11T18:33:16.615Z,100.00
2022-09-11T18:35:44.179Z,100.00
2022-09-11T18:38:10.848Z,100.00
2022-09-11T18:40:37.246Z,100.00
2022-09-11T18:43:03.661Z,100.00
2022-09-11T18:45:30.667Z,100.00
2022-09-11T18:47:57.223Z,100.00
2022-09-11T18:50:24.663Z,100.00
2022-09-11T18:52:52.013Z,100.00
2022-09-11T18:55:22.734Z,100.00
2022-09-11T18:57:50.361Z,100.00
2022-09-11T19:00:17.870Z,100.00
2022-09-11T19:02:46.073Z,100.00
2022-09-11T19:05:15.392Z,100.00
2022-09-11T19:07:43.904Z,100.00
2022-09-11T19:10:11.601Z,100.00
2022-09-11T19:12:39.395Z,100.00
2022-09-11T19:15:07.594Z,100.00
2022-09-11T19:17:36.614Z,100.00
2022-09-11T19:20:06.011Z,100.00
2022-09-11T19:22:32.471Z,100.00
2022-09-11T19:24:59.835Z,100.00
2022-09-11T19:27:26.737Z,100.00
2022-09-11T19:29:53.557Z,100.00
2022-09-11T19:32:20.021Z,100.00
2022-09-11T19:34:47.409Z,100.00
2022-09-11T19:37:15.113Z,100.00
2022-09-11T19:39:41.770Z,100.00
2022-09-11T19:42:09.180Z,100.00
2022-09-11T19:44:35.878Z,100.00
2022-09-11T19:47:02.553Z,100.00
2022-09-11T19:49:29.849Z,100.00
2022-09-11T19:51:57.038Z,100.00
2022-09-11T19:54:23.758Z,100.00
2022-09-11T19:56:51.020Z,100.00
2022-09-11T19:59:17.425Z,100.00
2022-09-11T20:01:44.219Z,100.00
2022-09-11T20:04:12.379Z,100.00
2022-09-11T20:06:39.139Z,100.00
2022-09-11T20:11:52.572Z,100.00
2022-09-11T20:14:18.952Z,100.00
2022-09-11T20:16:45.483Z,100.00
2022-09-11T20:19:12.105Z,100.00
2022-09-11T20:21:38.596Z,100.00
2022-09-11T20:24:06.735Z,100.00
2022-09-11T20:26:34.027Z,100.00
2022-09-11T20:29:03.389Z,100.00
2022-09-11T20:31:32.772Z,100.00
2022-09-11T20:34:00.715Z,100.00
2022-09-11T20:36:29.790Z,100.00
2022-09-11T20:38:58.275Z,100.00
2022-09-11T20:41:28.877Z,100.00
2022-09-11T20:43:56.943Z,100.00
2022-09-11T20:46:23.958Z,100.00
2022-09-11T20:48:52.808Z,100.00
2022-09-11T20:51:20.814Z,100.00
2022-09-11T20:53:47.319Z,100.00
2022-09-11T20:56:16.473Z,100.00
2022-09-11T20:58:44.202Z,100.00
2022-09-11T21:01:15.903Z,100.00
2022-09-11T21:03:45.085Z,100.00
2022-09-11T21:06:11.661Z,100.00
2022-09-11T21:08:39.819Z,100.00
2022-09-11T21:11:07.764Z,100.00
2022-09-11T21:13:36.839Z,100.00
2022-09-11T21:16:08.774Z,100.00
2022-09-11T21:18:35.482Z,100.00
2022-09-11T21:21:02.298Z,100.00
2022-09-11T21:23:29.287Z,100.00
2022-09-11T21:25:55.777Z,100.00
2022-09-11T21:28:22.627Z,100.00
2022-09-11T21:30:49.465Z,100.00
2022-09-11T21:33:19.868Z,100.00
2022-09-11T21:36:06.004Z,100.00
2022-09-11T21:38:33.185Z,100.00
2022-09-11T21:41:02.036Z,100.00
2022-09-11T21:43:28.983Z,100.00
2022-09-11T21:45:55.777Z,100.00
2022-09-11T21:48:23.068Z,100.00
2022-09-11T21:50:49.764Z,100.00
2022-09-11T21:53:16.276Z,100.00
2022-09-11T21:55:44.922Z,100.00
2022-09-11T21:58:21.295Z,100.00
2022-09-11T22:00:49.052Z,100.00
2022-09-11T22:03:18.377Z,100.00
2022-09-11T22:05:47.607Z,100.00
2022-09-11T22:08:16.949Z,100.00
2022-09-11T22:10:45.117Z,100.00
2022-09-11T22:13:11.466Z,100.00
2022-09-11T22:15:42.163Z,100.00
2022-09-11T22:18:09.807Z,100.00
2022-09-11T22:20:37.617Z,100.00
2022-09-11T22:23:04.263Z,100.00
2022-09-11T22:25:30.647Z,100.00
2022-09-11T22:27:57.060Z,100.00
2022-09-11T22:30:23.752Z,100.00
2022-09-11T22:32:50.730Z,100.00
2022-09-11T22:35:17.433Z,100.00
2022-09-11T22:37:43.742Z,100.00
2022-09-11T22:40:10.956Z,100.00
2022-09-11T22:42:37.595Z,100.00
2022-09-11T22:45:04.588Z,100.00
2022-09-11T22:47:31.137Z,100.00
2022-09-11T22:49:57.719Z,100.00
2022-09-11T22:52:24.299Z,100.00
2022-09-11T22:54:51.029Z,100.00
2022-09-11T22:57:17.441Z,100.00
2022-09-11T22:59:44.223Z,100.00
2022-09-11T23:02:12.877Z,100.00
2022-09-11T23:04:39.535Z,100.00
2022-09-11T23:07:15.934Z,100.00
2022-09-11T23:09:43.945Z,100.00
2022-09-11T23:12:11.252Z,100.00
2022-09-11T23:14:37.702Z,100.00
2022-09-11T23:17:04.454Z,100.00
2022-09-11T23:19:31.940Z,100.00
2022-09-11T23:21:58.346Z,100.00
2022-09-11T23:24:25.149Z,100.00
2022-09-11T23:26:51.500Z,100.00
2022-09-11T23:29:17.971Z,100.00
2022-09-11T23:31:45.387Z,100.00
2022-09-11T23:34:15.323Z,100.00
2022-09-11T23:36:41.943Z,100.00
2022-09-11T23:39:08.436Z,100.00
2022-09-11T23:41:34.925Z,100.00
2022-09-11T23:44:03.491Z,100.00
2022-09-11T23:46:30.238Z,100.00
2022-09-11T23:48:56.722Z,100.00
2022-09-11T23:51:23.132Z,100.00
2022-09-11T23:53:51.688Z,100.00
2022-09-11T23:56:18.868Z,100.00
2022-09-11T23:58:45.679Z,100.00
